createdAt,value
2022-12-28T00:01:22.878Z,69.46
2022-12-28T00:03:50.230Z,68.87
2022-12-28T00:06:17.689Z,70.77
2022-12-28T00:08:44.401Z,70.03
2022-12-28T00:11:26.547Z,68.14
2022-12-28T00:13:59.022Z,67.92
2022-12-28T00:16:28.484Z,67.52
2022-12-28T00:18:56.164Z,67.94
2022-12-28T00:21:23.329Z,68.35
2022-12-28T00:23:54.112Z,68.43
2022-12-28T00:26:26.193Z,67.54
2022-12-28T00:28:56.911Z,68.09
2022-12-28T00:31:28.429Z,66.74
2022-12-28T00:33:54.931Z,66.82
2022-12-28T00:36:21.458Z,66.65
2022-12-28T00:38:47.871Z,67.19
2022-12-28T00:41:14.322Z,67.55
2022-12-28T00:43:40.758Z,67.36
2022-12-28T00:46:07.316Z,65.94
2022-12-28T00:48:33.861Z,65.65
2022-12-28T00:51:15.176Z,66.71
2022-12-28T00:53:42.353Z,66.52
2022-12-28T00:56:11.847Z,67.83
2022-12-28T00:58:38.633Z,65.85
2022-12-28T01:01:06.713Z,65.26
2022-12-28T01:03:33.221Z,66.09
2022-12-28T01:05:59.636Z,65.67
2022-12-28T01:08:26.048Z,65.75
2022-12-28T01:10:52.505Z,65.84
2022-12-28T01:13:18.976Z,66.18
2022-12-28T01:15:45.414Z,65.13
2022-12-28T01:18:12.748Z,64.99
2022-12-28T01:20:40.643Z,64.85
2022-12-28T01:23:07.270Z,67.01
2022-12-28T01:25:34.357Z,65.61
2022-12-28T01:28:00.969Z,64.88
2022-12-28T01:30:27.497Z,66.58
2022-12-28T01:32:53.945Z,66.04
2022-12-28T01:35:20.382Z,65.31
2022-12-28T01:37:46.803Z,65.14
2022-12-28T01:40:15.724Z,65.31
2022-12-28T01:42:42.163Z,66.73
2022-12-28T01:45:20.057Z,66.86
2022-12-28T01:47:49.332Z,67.27
2022-12-28T01:50:21.176Z,66.00
2022-12-28T01:52:59.349Z,65.78
2022-12-28T01:55:30.085Z,66.72
2022-12-28T01:58:03.329Z,67.21
2022-12-28T02:00:29.846Z,66.60
2022-12-28T02:03:05.260Z,66.75
2022-12-28T02:05:38.351Z,66.48
2022-12-28T02:08:10.831Z,66.72
2022-12-28T02:10:43.930Z,64.99
2022-12-28T02:13:17.026Z,66.97
2022-12-28T02:15:44.193Z,65.89
2022-12-28T02:18:12.116Z,64.49
2022-12-28T02:21:17.171Z,65.06
2022-12-28T02:24:07.876Z,64.79
2022-12-28T02:26:47.302Z,65.68
2022-12-28T02:29:43.448Z,65.14
2022-12-28T02:32:39.497Z,65.75
2022-12-28T02:35:24.040Z,65.45
2022-12-28T02:38:09.311Z,65.48
2022-12-28T02:40:42.413Z,65.45
2022-12-28T02:43:08.960Z,65.51
2022-12-28T02:46:02.587Z,65.13
2022-12-28T02:49:00.979Z,65.27
2022-12-28T02:52:06.844Z,66.23
2022-12-28T02:55:24.049Z,65.50
2022-12-28T02:57:56.207Z,66.21
2022-12-28T03:00:25.847Z,66.34
2022-12-28T03:02:58.169Z,67.42
2022-12-28T03:06:04.073Z,66.67
2022-12-28T03:08:50.835Z,66.36
2022-12-28T03:11:22.574Z,66.69
2022-12-28T03:13:56.843Z,65.55
2022-12-28T03:16:57.833Z,65.96
2022-12-28T03:19:50.275Z,66.59
2022-12-28T03:22:37.979Z,67.69
2022-12-28T03:25:35.359Z,66.83
2022-12-28T03:28:24.149Z,65.90
2022-12-28T03:31:06.466Z,65.93
2022-12-28T03:33:42.101Z,66.19
2022-12-28T03:36:20.299Z,68.06
2022-12-28T03:39:11.563Z,66.93
2022-12-28T03:41:42.851Z,65.97
2022-12-28T03:44:16.142Z,66.15
2022-12-28T03:47:11.181Z,67.77
2022-12-28T03:49:38.393Z,66.01
2022-12-28T03:52:06.498Z,67.34
2022-12-28T03:54:33.010Z,68.04
2022-12-28T03:56:59.592Z,68.50
2022-12-28T03:59:25.990Z,68.58
2022-12-28T04:01:52.523Z,69.06
2022-12-28T04:04:19.004Z,66.94
2022-12-28T04:06:45.462Z,68.85
2022-12-28T04:09:11.841Z,67.76
2022-12-28T04:11:38.306Z,67.92
2022-12-28T04:14:10.387Z,67.93
2022-12-28T04:16:37.587Z,68.55
2022-12-28T04:19:04.163Z,70.51
2022-12-28T04:21:30.550Z,69.44
2022-12-28T04:23:56.953Z,70.98
2022-12-28T04:26:23.392Z,70.57
2022-12-28T04:28:49.841Z,69.49
2022-12-28T04:31:16.274Z,69.22
2022-12-28T04:33:42.746Z,71.19
2022-12-28T04:36:12.805Z,70.50
2022-12-28T04:38:40.170Z,68.73
2022-12-28T04:41:08.466Z,69.17
2022-12-28T04:43:35.223Z,70.55
2022-12-28T04:46:04.536Z,68.39
2022-12-28T04:48:31.597Z,69.04
2022-12-28T04:50:58.337Z,69.13
2022-12-28T04:53:24.853Z,70.22
2022-12-28T04:55:51.258Z,69.73
2022-12-28T04:58:17.722Z,69.60
2022-12-28T05:00:44.381Z,69.93
2022-12-28T05:03:11.221Z,69.12
2022-12-28T05:05:37.793Z,68.90
2022-12-28T05:08:04.409Z,71.10
2022-12-28T05:10:30.906Z,69.69
2022-12-28T05:12:57.309Z,70.34
2022-12-28T05:15:23.756Z,69.66
2022-12-28T05:17:50.432Z,70.54
2022-12-28T05:20:18.050Z,69.41
2022-12-28T05:22:44.560Z,69.92
2022-12-28T05:25:11.006Z,70.55
2022-12-28T05:27:37.432Z,69.34
2022-12-28T05:30:04.236Z,71.61
2022-12-28T05:32:30.609Z,71.32
2022-12-28T05:34:57.044Z,72.13
2022-12-28T05:37:23.459Z,70.93
2022-12-28T05:39:49.919Z,71.12
2022-12-28T05:42:16.341Z,70.95
2022-12-28T05:44:42.735Z,70.51
2022-12-28T05:47:09.240Z,71.95
2022-12-28T05:49:35.672Z,71.26
2022-12-28T05:52:02.131Z,71.48
2022-12-28T05:54:28.528Z,72.29
2022-12-28T05:56:54.922Z,70.56
2022-12-28T05:59:21.455Z,70.02
2022-12-28T06:01:48.023Z,70.75
2022-12-28T06:04:19.654Z,71.99
2022-12-28T06:06:47.236Z,72.08
2022-12-28T06:09:14.109Z,70.67
2022-12-28T06:11:40.534Z,70.97
2022-12-28T06:14:07.356Z,69.51
2022-12-28T06:16:40.660Z,69.62
2022-12-28T06:19:10.276Z,70.92
2022-12-28T06:21:39.166Z,69.85
2022-12-28T06:24:07.199Z,71.58
2022-12-28T06:26:36.049Z,70.68
2022-12-28T06:29:02.592Z,71.12
2022-12-28T06:31:34.650Z,69.85
2022-12-28T06:34:02.712Z,70.55
2022-12-28T06:36:32.225Z,69.14
2022-12-28T06:38:59.978Z,69.57
2022-12-28T06:41:27.187Z,72.00
2022-12-28T06:43:54.879Z,71.54
2022-12-28T06:46:24.022Z,70.50
2022-12-28T06:48:51.064Z,69.24
2022-12-28T06:51:23.323Z,69.82
2022-12-28T06:53:51.624Z,72.13
2022-12-28T06:56:21.014Z,70.51
2022-12-28T06:58:49.295Z,71.50
2022-12-28T07:01:31.988Z,69.28
2022-12-28T07:04:00.129Z,72.11
2022-12-28T07:06:28.645Z,71.91
2022-12-28T07:09:04.377Z,70.99
2022-12-28T07:11:30.952Z,71.48
2022-12-28T07:13:57.834Z,72.17
2022-12-28T07:16:25.986Z,72.78
2022-12-28T07:18:52.693Z,74.72
2022-12-28T07:21:22.532Z,74.00
2022-12-28T07:23:51.457Z,76.16
2022-12-28T07:26:22.945Z,73.63
2022-12-28T07:28:51.953Z,71.97
2022-12-28T07:31:35.737Z,74.60
2022-12-28T07:34:04.794Z,73.54
2022-12-28T07:36:32.631Z,75.46
2022-12-28T07:39:00.296Z,74.85
2022-12-28T07:41:29.792Z,73.32
2022-12-28T07:43:56.598Z,75.17
2022-12-28T07:46:28.468Z,74.05
2022-12-28T07:48:56.897Z,74.08
2022-12-28T07:51:27.119Z,74.15
2022-12-28T07:53:54.916Z,73.33
2022-12-28T07:56:22.727Z,73.76
2022-12-28T08:01:18.193Z,73.55
2022-12-28T08:03:45.538Z,74.07
2022-12-28T08:06:13.514Z,75.54
2022-12-28T08:08:42.679Z,76.01
2022-12-28T08:11:12.144Z,74.50
2022-12-28T08:13:42.043Z,73.78
2022-12-28T08:16:11.674Z,72.93
2022-12-28T08:18:38.471Z,73.04
2022-12-28T08:21:07.631Z,74.66
2022-12-28T08:23:34.077Z,74.68
2022-12-28T08:26:15.080Z,74.41
2022-12-28T08:28:43.315Z,75.52
2022-12-28T08:31:15.632Z,76.07
2022-12-28T08:33:42.302Z,76.26
2022-12-28T08:36:09.693Z,74.40
2022-12-28T08:38:37.922Z,73.35
2022-12-28T08:41:06.941Z,72.51
2022-12-28T08:43:34.516Z,73.48
2022-12-28T08:46:05.555Z,72.17
2022-12-28T08:48:33.558Z,74.14
2022-12-28T08:51:08.721Z,75.05
2022-12-28T08:53:36.363Z,73.92
2022-12-28T08:56:10.833Z,75.04
2022-12-28T08:58:39.097Z,73.05
2022-12-28T09:01:12.834Z,72.57
2022-12-28T09:03:42.204Z,73.14
2022-12-28T09:06:12.038Z,74.47
2022-12-28T09:08:39.309Z,73.78
2022-12-28T09:11:08.611Z,73.91
2022-12-28T09:13:35.680Z,73.65
2022-12-28T09:16:05.007Z,71.23
2022-12-28T09:18:31.883Z,73.93
2022-12-28T09:21:04.964Z,74.05
2022-12-28T09:23:31.385Z,74.96
2022-12-28T09:26:04.192Z,72.57
2022-12-28T09:28:30.651Z,74.88
2022-12-28T09:30:57.130Z,76.50
2022-12-28T09:34:15.351Z,73.64
2022-12-28T09:36:38.070Z,73.90
2022-12-28T09:39:07.326Z,74.72
2022-12-28T09:41:51.101Z,76.91
2022-12-28T09:44:32.197Z,76.96
2022-12-28T09:47:17.467Z,75.30
2022-12-28T09:50:01.768Z,74.67
2022-12-28T09:52:36.663Z,75.25
2022-12-28T09:55:12.369Z,77.36
2022-12-28T09:57:43.138Z,73.73
2022-12-28T10:00:18.153Z,72.31
2022-12-28T10:02:49.802Z,75.53
2022-12-28T10:05:16.647Z,73.89
2022-12-28T10:07:43.291Z,73.64
2022-12-28T10:10:16.172Z,73.91
2022-12-28T10:12:43.686Z,75.45
2022-12-28T10:15:14.791Z,75.41
2022-12-28T10:17:42.373Z,74.05
2022-12-28T10:20:20.304Z,72.90
2022-12-28T10:22:51.966Z,73.57
2022-12-28T10:25:21.982Z,75.76
2022-12-28T10:27:49.617Z,75.98
2022-12-28T10:30:29.656Z,75.13
2022-12-28T10:33:02.940Z,74.63
2022-12-28T10:35:48.287Z,74.49
2022-12-28T10:38:23.148Z,72.52
2022-12-28T10:41:17.087Z,75.30
2022-12-28T10:44:21.343Z,76.61
2022-12-28T10:46:51.323Z,73.71
2022-12-28T10:49:17.926Z,74.96
2022-12-28T10:51:59.797Z,74.14
2022-12-28T10:54:27.614Z,75.33
2022-12-28T10:56:54.815Z,76.10
2022-12-28T10:59:24.365Z,73.14
2022-12-28T11:01:50.947Z,74.51
2022-12-28T11:04:21.690Z,72.70
2022-12-28T11:06:52.566Z,74.96
2022-12-28T11:09:21.827Z,72.99
2022-12-28T11:11:50.374Z,74.64
2022-12-28T11:14:35.293Z,75.44
2022-12-28T11:17:20.061Z,75.43
2022-12-28T11:19:48.937Z,76.13
2022-12-28T11:22:24.172Z,74.33
2022-12-28T11:24:50.940Z,73.95
2022-12-28T11:27:23.358Z,73.71
2022-12-28T11:29:53.154Z,74.70
2022-12-28T11:32:38.541Z,71.54
2022-12-28T11:35:06.358Z,71.54
2022-12-28T11:37:32.810Z,73.86
2022-12-28T11:39:59.308Z,71.88
2022-12-28T11:42:41.805Z,73.36
2022-12-28T11:45:46.985Z,73.73
2022-12-28T11:48:38.336Z,70.96
2022-12-28T11:51:05.737Z,73.20
2022-12-28T11:53:32.117Z,74.62
2022-12-28T11:56:01.469Z,72.65
2022-12-28T11:58:30.866Z,74.21
2022-12-28T12:01:00.083Z,74.51
2022-12-28T12:03:58.979Z,72.15
2022-12-28T12:06:44.077Z,72.42
2022-12-28T12:09:25.714Z,73.64
2022-12-28T12:12:06.088Z,71.32
2022-12-28T12:14:41.982Z,73.38
2022-12-28T12:17:14.435Z,72.49
2022-12-28T12:19:48.251Z,74.23
2022-12-28T12:22:21.169Z,71.68
2022-12-28T12:24:54.932Z,70.20
2022-12-28T12:27:39.456Z,69.15
2022-12-28T12:30:15.608Z,70.95
2022-12-28T12:32:56.637Z,71.18
2022-12-28T12:35:28.709Z,71.26
2022-12-28T12:38:13.273Z,72.58
2022-12-28T12:40:42.533Z,70.83
2022-12-28T12:43:27.175Z,69.48
2022-12-28T12:46:09.010Z,72.17
2022-12-28T12:48:57.432Z,73.97
2022-12-28T12:52:01.539Z,71.97
2022-12-28T12:54:52.987Z,71.70
2022-12-28T12:57:47.639Z,73.27
2022-12-28T13:00:17.063Z,71.77
2022-12-28T13:03:09.612Z,73.43
2022-12-28T13:05:41.539Z,71.00
2022-12-28T13:08:21.670Z,69.64
2022-12-28T13:10:48.537Z,71.22
2022-12-28T13:13:32.660Z,68.74
2022-12-28T13:16:04.790Z,68.90
2022-12-28T13:18:44.530Z,70.46
2022-12-28T13:21:20.331Z,69.56
2022-12-28T13:23:47.333Z,66.56
2022-12-28T13:26:15.706Z,67.94
2022-12-28T13:28:55.799Z,67.13
2022-12-28T13:31:25.320Z,66.87
2022-12-28T13:34:35.991Z,67.46
2022-12-28T13:37:13.825Z,67.96
2022-12-28T13:39:42.440Z,67.07
2022-12-28T13:42:17.371Z,67.39
2022-12-28T13:45:01.679Z,67.04
2022-12-28T13:47:38.394Z,68.08
2022-12-28T13:50:10.805Z,68.96
2022-12-28T13:52:45.518Z,66.80
2022-12-28T13:55:18.517Z,68.42
2022-12-28T13:57:54.178Z,68.64
2022-12-28T14:00:24.218Z,68.12
2022-12-28T14:02:55.481Z,66.51
2022-12-28T14:05:25.839Z,67.85
2022-12-28T14:07:54.652Z,67.79
2022-12-28T14:10:21.998Z,67.05
2022-12-28T14:12:49.753Z,67.08
2022-12-28T14:15:17.148Z,68.49
2022-12-28T14:17:46.531Z,68.90
2022-12-28T14:20:13.272Z,66.65
2022-12-28T14:22:40.960Z,66.55
2022-12-28T14:25:14.072Z,67.67
2022-12-28T14:27:44.695Z,68.20
2022-12-28T14:30:23.569Z,68.26
2022-12-28T14:32:50.434Z,69.83
2022-12-28T14:35:21.158Z,68.18
2022-12-28T14:37:52.988Z,67.06
2022-12-28T14:40:32.454Z,68.24
2022-12-28T14:43:17.696Z,68.21
2022-12-28T14:46:07.692Z,69.03
2022-12-28T14:48:40.155Z,66.75
2022-12-28T14:51:26.992Z,68.34
2022-12-28T14:54:11.729Z,66.55
2022-12-28T14:56:38.929Z,68.16
2022-12-28T14:59:13.662Z,67.16
2022-12-28T15:01:41.820Z,67.31
2022-12-28T15:04:24.741Z,65.56
2022-12-28T15:06:51.173Z,65.82
2022-12-28T15:09:17.715Z,67.11
2022-12-28T15:11:45.981Z,67.45
2022-12-28T15:14:12.806Z,67.39
2022-12-28T15:16:39.315Z,67.85
2022-12-28T15:19:05.843Z,67.85
2022-12-28T15:21:33.381Z,68.86
2022-12-28T15:23:59.817Z,67.98
2022-12-28T15:26:29.148Z,69.95
2022-12-28T15:28:55.583Z,66.33
2022-12-28T15:31:22.231Z,67.09
2022-12-28T15:33:49.031Z,65.96
2022-12-28T15:36:18.567Z,67.23
2022-12-28T15:38:48.999Z,65.08
2022-12-28T15:41:35.117Z,66.25
2022-12-28T15:44:01.956Z,67.23
2022-12-28T15:46:28.542Z,67.20
2022-12-28T15:48:55.076Z,65.99
2022-12-28T15:51:21.501Z,64.94
2022-12-28T15:53:47.922Z,65.84
2022-12-28T15:56:27.743Z,66.38
2022-12-28T15:58:56.546Z,65.77
2022-12-28T16:01:24.826Z,65.76
2022-12-28T16:03:52.943Z,64.86
2022-12-28T16:06:20.909Z,65.50
2022-12-28T16:08:48.220Z,64.92
2022-12-28T16:11:17.450Z,66.11
2022-12-28T16:13:49.766Z,64.94
2022-12-28T16:16:16.220Z,64.68
2022-12-28T16:18:42.700Z,67.20
2022-12-28T16:21:10.887Z,65.86
2022-12-28T16:23:39.768Z,65.75
2022-12-28T16:26:07.430Z,64.69
2022-12-28T16:28:34.385Z,65.80
2022-12-28T16:31:01.385Z,67.79
2022-12-28T16:33:28.022Z,65.86
2022-12-28T16:35:59.289Z,66.95
2022-12-28T16:38:28.803Z,68.60
2022-12-28T16:40:56.487Z,67.29
2022-12-28T16:43:23.350Z,66.95
2022-12-28T16:45:49.836Z,65.96
2022-12-28T16:48:16.893Z,65.64
2022-12-28T16:50:43.319Z,64.72
2022-12-28T16:53:09.818Z,65.19
2022-12-28T16:55:42.146Z,69.03
2022-12-28T16:58:09.869Z,66.52
2022-12-28T17:00:36.653Z,67.27
2022-12-28T17:03:03.357Z,66.15
2022-12-28T17:05:34.642Z,66.96
2022-12-28T17:08:02.244Z,66.07
2022-12-28T17:10:29.490Z,65.62
2022-12-28T17:12:56.051Z,65.37
2022-12-28T17:15:23.437Z,66.21
2022-12-28T17:17:50.202Z,64.95
2022-12-28T17:20:16.855Z,66.70
2022-12-28T17:22:43.340Z,65.91
2022-12-28T17:25:09.748Z,66.05
2022-12-28T17:27:36.236Z,65.56
2022-12-28T17:30:02.661Z,65.26
2022-12-28T17:32:29.125Z,64.44
2022-12-28T17:34:55.633Z,65.18
2022-12-28T17:37:22.110Z,64.73
2022-12-28T17:39:48.532Z,64.61
2022-12-28T17:42:14.936Z,63.42
2022-12-28T17:44:41.368Z,63.82
2022-12-28T17:47:08.384Z,63.79
2022-12-28T17:49:34.834Z,63.08
2022-12-28T17:52:01.273Z,65.82
2022-12-28T17:54:27.795Z,62.74
2022-12-28T17:56:54.189Z,63.29
2022-12-28T17:59:20.659Z,64.15
2022-12-28T18:01:47.145Z,63.26
2022-12-28T18:04:14.307Z,64.77
2022-12-28T18:06:40.853Z,63.76
2022-12-28T18:09:07.265Z,63.43
2022-12-28T18:11:33.788Z,63.53
2022-12-28T18:14:00.220Z,63.18
2022-12-28T18:16:27.761Z,61.10
2022-12-28T18:18:54.367Z,60.61
2022-12-28T18:21:23.013Z,61.96
2022-12-28T18:23:51.940Z,60.87
2022-12-28T18:26:26.225Z,61.69
2022-12-28T18:28:54.438Z,61.46
2022-12-28T18:31:21.351Z,60.47
2022-12-28T18:33:48.359Z,61.91
2022-12-28T18:36:17.722Z,61.70
2022-12-28T18:38:47.387Z,61.60
2022-12-28T18:41:16.314Z,60.94
2022-12-28T18:43:43.046Z,60.43
2022-12-28T18:46:09.717Z,61.50
2022-12-28T18:48:39.032Z,61.88
2022-12-28T18:51:08.315Z,61.05
2022-12-28T18:53:35.578Z,60.65
2022-12-28T18:56:01.911Z,62.16
2022-12-28T18:58:30.599Z,61.21
2022-12-28T19:01:13.070Z,60.39
2022-12-28T19:04:00.604Z,62.94
2022-12-28T19:06:27.436Z,62.08
2022-12-28T19:08:59.745Z,61.97
2022-12-28T19:11:26.420Z,62.85
2022-12-28T19:13:52.844Z,62.53
2022-12-28T19:16:24.593Z,62.49
2022-12-28T19:18:57.041Z,61.33
2022-12-28T19:21:34.835Z,62.29
2022-12-28T19:24:10.035Z,61.59
2022-12-28T19:26:36.465Z,62.04
2022-12-28T19:29:03.923Z,62.79
2022-12-28T19:31:31.119Z,61.96
2022-12-28T19:33:57.890Z,60.81
2022-12-28T19:36:25.167Z,61.42
2022-12-28T19:38:55.544Z,62.25
2022-12-28T19:41:22.809Z,60.79
2022-12-28T19:43:49.361Z,61.70
2022-12-28T19:46:18.137Z,62.23
2022-12-28T19:48:45.397Z,62.70
2022-12-28T19:51:12.354Z,61.21
2022-12-28T19:53:38.792Z,60.94
2022-12-28T19:56:06.523Z,61.36
2022-12-28T19:58:34.801Z,60.12
2022-12-28T20:01:13.539Z,61.39
2022-12-28T20:03:40.761Z,61.93
2022-12-28T20:06:13.263Z,61.74
2022-12-28T20:08:40.316Z,61.38
2022-12-28T20:11:06.788Z,61.15
2022-12-28T20:13:34.325Z,61.25
2022-12-28T20:16:00.813Z,62.43
2022-12-28T20:18:27.309Z,60.26
2022-12-28T20:23:46.013Z,62.26
2022-12-28T20:26:12.580Z,60.79
2022-12-28T20:28:39.016Z,61.90
2022-12-28T20:31:07.679Z,61.77
2022-12-28T20:33:37.092Z,61.60
2022-12-28T20:36:06.975Z,60.89
2022-12-28T20:38:34.472Z,61.84
2022-12-28T20:41:39.427Z,61.59
2022-12-28T20:44:11.779Z,61.29
2022-12-28T20:46:38.298Z,61.20
2022-12-28T20:49:06.104Z,61.23
2022-12-28T20:51:33.579Z,60.67
2022-12-28T20:54:00.140Z,61.09
2022-12-28T20:56:27.058Z,61.20
2022-12-28T20:58:53.818Z,61.44
2022-12-28T21:01:21.228Z,60.89
2022-12-28T21:03:47.941Z,62.72
2022-12-28T21:06:15.087Z,61.30
2022-12-28T21:08:41.569Z,62.99
2022-12-28T21:11:08.147Z,61.94
2022-12-28T21:13:37.996Z,62.03
2022-12-28T21:16:07.688Z,62.68
2022-12-28T21:18:35.580Z,61.09
2022-12-28T21:21:02.758Z,61.86
2022-12-28T21:23:30.796Z,63.22
2022-12-28T21:26:04.712Z,61.16
2022-12-28T21:28:31.436Z,61.86
2022-12-28T21:30:58.275Z,61.79
2022-12-28T21:33:24.788Z,60.85
2022-12-28T21:36:19.166Z,62.40
2022-12-28T21:38:47.623Z,61.63
2022-12-28T21:41:16.984Z,62.10
2022-12-28T21:43:43.459Z,62.44
2022-12-28T21:46:14.573Z,63.05
2022-12-28T21:48:42.250Z,63.85
2022-12-28T21:51:32.222Z,61.85
2022-12-28T21:54:00.845Z,63.91
2022-12-28T21:56:28.456Z,63.15
2022-12-28T21:58:55.493Z,63.51
2022-12-28T22:01:41.068Z,62.79
2022-12-28T22:04:27.508Z,62.77
2022-12-28T22:06:53.914Z,63.35
2022-12-28T22:09:38.807Z,63.40
2022-12-28T22:12:24.238Z,65.67
2022-12-28T22:15:11.717Z,63.10
2022-12-28T22:17:38.110Z,63.38
2022-12-28T22:20:04.913Z,62.48
2022-12-28T22:22:31.344Z,61.68
2022-12-28T22:24:57.750Z,62.07
2022-12-28T22:27:24.201Z,63.20
2022-12-28T22:29:50.665Z,62.41
2022-12-28T22:32:17.148Z,63.31
2022-12-28T22:34:43.600Z,64.00
2022-12-28T22:37:10.047Z,63.15
2022-12-28T22:39:36.488Z,63.34
2022-12-28T22:42:02.974Z,65.43
2022-12-28T22:44:29.406Z,64.80
2022-12-28T22:46:55.850Z,65.09
2022-12-28T22:49:22.275Z,65.04
2022-12-28T22:51:48.804Z,63.67
2022-12-28T22:54:15.288Z,64.12
2022-12-28T22:56:41.686Z,62.55
2022-12-28T22:59:13.661Z,65.53
2022-12-28T23:01:42.290Z,63.47
2022-12-28T23:04:09.011Z,62.99
2022-12-28T23:06:35.559Z,66.74
2022-12-28T23:09:02.029Z,66.52
2022-12-28T23:11:37.451Z,63.82
2022-12-28T23:14:25.571Z,63.82
2022-12-28T23:16:52.327Z,62.88
2022-12-28T23:19:37.635Z,62.84
2022-12-28T23:22:24.620Z,63.06
2022-12-28T23:25:09.814Z,62.91
2022-12-28T23:27:39.423Z,60.24
2022-12-28T23:30:08.860Z,62.40
2022-12-28T23:32:35.304Z,63.25
2022-12-28T23:35:02.321Z,63.60
2022-12-28T23:37:28.731Z,67.04
2022-12-28T23:39:55.169Z,64.44
2022-12-28T23:42:21.821Z,62.44
2022-12-28T23:44:49.592Z,66.02
2022-12-28T23:47:17.396Z,63.81
2022-12-28T23:49:43.920Z,62.35
2022-12-28T23:52:10.708Z,67.37
2022-12-28T23:54:37.133Z,64.31
2022-12-28T23:57:03.698Z,64.46
2022-12-28T23:59:30.104Z,66.64
